• Join FlightAware (Why Join?)
  • Login
  • US Flag 
12:36AM EDT


 

Airport Tracker/Info


-or-


 

Live Flight TrackerFlight Track Log ✈ EJA370 ✈ 08-May-2013 ✈ KBJC - KSJC

Flight Track Log - Related Links

Times and Time Zones

All times are in EDT time to prevent confusion due to time zone crossing. See the EJA370 flight status page for this flight to view local times or setup timezone preferences in your user account.

Time Position Orientation Groundspeed Altitude Reporting Facility
EDT Latitude Longitude Course Direction KTS MPH feet Rate Location/Type
07:17PM 39.9000 -105.1000 123° Southeast 157 181 7,500  Level Denver TRACON
07:18PM 39.8667 -105.0333 123° Southeast 252 290 10,700 3,180 Climbing Denver TRACON
07:19PM 39.8094 -105.0319 179° South 285 328 12,700 2,520 Climbing Denver Center
07:20PM 39.7322 -105.0736 203° Southwest 315 362 14,900 2,640 Climbing Denver Center
07:21PM 39.7192 -105.1883 262° West 321 369 18,200 2,700 Climbing Denver Center
07:22PM 39.7078 -105.3269 264° West 362 417 20,500 1,980 Climbing Denver Center
07:23PM 39.6894 -105.4700 261° West 401 461 22,400 2,220 Climbing Denver Center
07:24PM 39.6597 -105.6300 256° West 423 487 25,100 2,340 Climbing Denver Center
07:25PM 39.6386 -105.7786 260° West 420 483 27,200 1,800 Climbing Denver Center
07:26PM 39.6222 -105.9103 261° West 417 480 28,900 1,980 Climbing Denver Center
07:27PM 39.5997 -106.1008 261° West 443 510 31,300 1,920 Climbing Denver Center
07:28PM 39.5800 -106.2617 261° West 454 522 32,900 1,500 Climbing Denver Center
07:29PM 39.5589 -106.4275 261° West 465 535 34,400 1,440 Climbing Denver Center
07:30PM 39.5358 -106.6106 261° West 473 544 35,900 1,500 Climbing Denver Center
07:31PM 39.5150 -106.7703 260° West 470 541 37,500 1,740 Climbing Denver Center
07:32PM 39.4906 -106.9444 260° West 447 514 39,500 1,200 Climbing Denver Center
07:33PM 39.4722 -107.0897 261° West 431 496 40,000 240 Climbing Denver Center
07:34PM 39.4522 -107.2378 260° West 433 498 40,000  Level Denver Center
07:35PM 39.4289 -107.4089 260° West 433 498 40,000  Level Denver Center
07:36PM 39.4086 -107.5544 260° West 431 496 40,000  Level Denver Center
07:37PM 39.3858 -107.7217 260° West 425 489 40,000  Level Denver Center
07:38PM 39.3661 -107.8656 260° West 424 488 40,000  Level Denver Center
07:39PM 39.3419 -108.0325 259° West 422 486 40,000  Level Denver Center
07:40PM 39.3225 -108.1744 260° West 418 481 40,000  Level Denver Center
07:41PM 39.2978 -108.3403 259° West 418 481 40,000  Level Denver Center
07:42PM 39.2772 -108.4833 260° West 419 482 40,000  Level Denver Center
07:43PM 39.2561 -108.6253 259° West 417 480 40,000  Level Denver Center
07:45PM 39.2314 -108.7897 259° West 415 478 40,000  Level Denver Center
07:46PM 39.2108 -108.9306 259° West 415 478 40,000  Level Denver Center
07:47PM 39.1861 -109.0939 259° West 413 475 40,000  Level Denver Center
07:48PM 39.1650 -109.2333 259° West 411 473 40,000  Level Denver Center
07:49PM 39.1406 -109.3953 259° West 412 474 40,000  Level Denver Center
07:50PM 39.1186 -109.5342 259° West 412 474 40,000  Level Denver Center
07:51PM 39.0939 -109.6950 259° West 410 472 40,000  Level Denver Center
07:52PM 39.0767 -109.8333 261° West 408 470 40,000  Level Denver Center
07:53PM 39.0689 -109.9500 265° West 407 468 40,000  Level Salt Lake Center
07:54PM 39.0583 -110.0894 264° West 409 471 40,000  Level Salt Lake Center
07:54PM 39.0544 -110.1356 264° West 405 466 40,000  Level Denver Center
07:55PM 39.0461 -110.2522 265° West 409 471 40,000  Level Salt Lake Center
07:56PM 39.0347 -110.3919 264° West 410 472 40,000  Level Salt Lake Center
07:57PM 39.0214 -110.5539 264° West 409 471 40,000  Level Salt Lake Center
07:58PM 39.0092 -110.6917 264° West 407 468 40,000  Level Salt Lake Center
07:59PM 38.9950 -110.8542 264° West 409 471 40,000  Level Salt Lake Center
08:00PM 38.9836 -110.9944 264° West 412 474 40,000  Level Salt Lake Center
08:01PM 38.9733 -111.1378 265° West 417 480 40,000  Level Salt Lake Center
08:02PM 38.9608 -111.2858 264° West 417 480 40,000  Level Salt Lake Center
08:03PM 38.9442 -111.4625 263° West 418 481 40,000  Level Salt Lake Center
08:04PM 38.9311 -111.6111 264° West 420 483 40,000  Level Salt Lake Center
08:05PM 38.9181 -111.7606 264° West 422 486 40,000  Level Salt Lake Center
08:06PM 38.9033 -111.9097 263° West 423 487 40,000  Level Salt Lake Center
08:07PM 38.8894 -112.0586 263° West 422 486 40,000  Level Salt Lake Center
08:08PM 38.8753 -112.2067 263° West 421 484 40,000  Level Salt Lake Center
08:09PM 38.8608 -112.3575 263° West 426 490 40,000  Level Salt Lake Center
08:10PM 38.8433 -112.5353 263° West 424 488 40,000  Level Salt Lake Center
08:11PM 38.8283 -112.6825 263° West 420 483 40,000  Level Salt Lake Center
08:12PM 38.8136 -112.8311 263° West 423 487 40,000  Level Salt Lake Center
08:13PM 38.7981 -112.9786 262° West 420 483 40,000  Level Salt Lake Center
08:14PM 38.7822 -113.1269 262° West 421 484 40,000  Level Salt Lake Center
08:15PM 38.7661 -113.2750 262° West 423 487 40,000  Level Salt Lake Center
08:16PM 38.7489 -113.4500 263° West 415 478 40,000  Level Salt Lake Center
08:17PM 38.7333 -113.5967 262° West 418 481 40,000  Level Salt Lake Center
08:18PM 38.7178 -113.7436 262° West 418 481 40,000  Level Salt Lake Center
08:19PM 38.7006 -113.8914 262° West 420 483 40,000  Level Salt Lake Center
08:20PM 38.6844 -114.0389 262° West 420 483 40,000  Level Salt Lake Center
08:21PM 38.6678 -114.1847 262° West 419 482 40,000  Level Salt Lake Center
08:22PM 38.6469 -114.3622 262° West 422 486 40,000  Level Salt Lake Center
08:23PM 38.6292 -114.5103 261° West 424 488 40,000  Level Salt Lake Center
08:24PM 38.6133 -114.6569 262° West 419 482 40,000  Level Salt Lake Center
08:25PM 38.5950 -114.8039 261° West 421 484 40,000  Level Salt Lake Center
08:27PM 38.5775 -114.9506 261° West 420 483 40,000  Level Salt Lake Center
08:28PM 38.5603 -115.0969 261° West 419 482 40,000  Level Salt Lake Center
08:29PM 38.5422 -115.2436 261° West 420 483 40,000  Level Salt Lake Center
08:30PM 38.5200 -115.4183 261° West 422 486 40,000  Level Salt Lake Center
08:31PM 38.5017 -115.5647 261° West 419 482 40,000  Level Salt Lake Center
08:32PM 38.4831 -115.7125 261° West 420 483 40,000  Level Salt Lake Center
08:33PM 38.4639 -115.8600 261° West 421 484 40,000  Level Salt Lake Center
08:34PM 38.4456 -116.0075 261° West 421 484 40,000  Level Salt Lake Center
08:34PM 38.4292 -116.1253 260° West 423 487 40,000  Level Oakland Center
08:36PM 38.3928 -116.2694 252° West 427 491 40,000  Level Oakland Center
08:37PM 38.3414 -116.4047 244° Southwest 425 489 40,000  Level Oakland Center
08:38PM 38.2889 -116.5394 244° Southwest 425 489 40,000  Level Oakland Center
08:39PM 38.2358 -116.6775 244° Southwest 431 496 40,000  Level Oakland Center
08:40PM 38.1833 -116.8122 244° Southwest 427 491 40,000  Level Oakland Center
08:41PM 38.1203 -116.9747 244° Southwest 426 490 40,000  Level Oakland Center
08:42PM 38.0772 -117.0842 243° Southwest 423 487 40,000  Level Oakland Center
08:42PM 38.0556 -117.1394 244° Southwest 423 487 40,000  Level Salt Lake Center
08:43PM 38.0219 -117.2231 243° Southwest 428 493 40,000  Level Oakland Center
08:44PM 37.9714 -117.3600 245° Southwest 424 488 40,000  Level Oakland Center
08:45PM 37.9269 -117.5286 252° West 418 481 40,000  Level Oakland Center
08:46PM 37.8878 -117.6703 251° West 421 484 40,000  Level Oakland Center
08:47PM 37.8494 -117.8092 251° West 420 483 40,000  Level Oakland Center
08:48PM 37.8117 -117.9492 251° West 420 483 40,000  Level Oakland Center
08:49PM 37.7733 -118.0883 251° West 420 483 40,000 -120 Level Oakland Center
08:50PM 37.7356 -118.2272 251° West 417 480 39,800 -780 Descending Oakland Center
08:51PM 37.6936 -118.3706 250° West 434 499 38,500 -1,320 Descending Oakland Center
08:52PM 37.6517 -118.5236 251° West 458 527 37,200 -1,320 Descending Oakland Center
08:53PM 37.6111 -118.6669 250° West 437 503 35,900 -1,380 Descending Oakland Center
08:54PM 37.5703 -118.8131 251° West 455 524 34,400 -1,560 Descending Oakland Center
08:55PM 37.5175 -118.9969 250° West 465 535 32,800 -1,800 Descending Oakland Center
08:56PM 37.4711 -119.1425 248° West 453 521 30,800 -1,560 Descending Oakland Center
08:57PM 37.4167 -119.2764 243° Southwest 433 498 29,700 -1,980 Descending Oakland Center
08:58PM 37.3742 -119.4222 250° West 440 506 26,800 -2,640 Descending Oakland Center
08:59PM 37.3506 -119.5644 258° West 419 482 24,400 -2,220 Descending Oakland Center
09:00PM 37.3294 -119.7094 260° West 421 484 22,400 -1,980 Descending Oakland Center
09:01PM 37.3047 -119.8500 258° West 411 473 20,400 -1,200 Descending Oakland Center
09:02PM 37.2831 -119.9878 259° West 403 464 20,000 -240 Descending Oakland Center
09:03PM 37.2608 -120.1278 259° West 406 467 20,000  Level Oakland Center
09:04PM 37.2386 -120.2658 259° West 403 464 20,000 -1,080 Level Oakland Center
09:05PM 37.2169 -120.4006 259° West 394 453 17,800 -2,580 Descending Oakland Center
09:06PM 37.2000 -120.4833 256° West 426 490 16,100 -1,200 Descending Northern Cal TRACON
09:07PM 37.1667 -120.6167 253° West 385 443 16,000 -1,200 Descending Northern Cal TRACON
09:08PM 37.1500 -120.7333 260° West 354 407 13,700 -2,640 Descending Northern Cal TRACON
09:09PM 37.1167 -120.8500 250° West 354 407 11,000 -2,340 Descending Northern Cal TRACON
09:09PM 37.1089 -120.9142 261° West 339 390 10,000 -600 Descending Oakland Center
09:10PM 37.0839 -121.0281 255° West 339 390 10,100  Climbing Oakland Center
09:11PM 37.0697 -121.1467 262° West 348 400 10,100  Level Oakland Center
09:12PM 37.0636 -121.2628 266° West 346 398 10,100 -180 Level Oakland Center
09:13PM 37.0564 -121.3808 266° West 342 394 9,800 -960 Descending Oakland Center
09:14PM 37.0756 -121.4714 285° West 288 331 8,200 -2,220 Descending Oakland Center
09:15PM 37.1142 -121.5772 295° West 280 322 5,400 -1,620 Descending Oakland Center
09:16PM 37.1411 -121.6542 294° West 251 289 5,000 -300 Descending Oakland Center
09:17PM 37.1644 -121.7144 296° West 244 281 4,800 -720 Descending Oakland Center
09:18PM 37.2189 -121.7747 319° Northwest 226 260 3,600 -1,140 Descending Oakland Center
09:19PM 37.2622 -121.8183 321° Northwest 213 245 2,500 -960 Descending Oakland Center
09:20PM 37.2939 -121.8547 318° Northwest 178 205 1,700 -840 Descending Oakland Center
09:21PM 37.3247 -121.8875 320° Northwest 159 183 900 -660 Descending Oakland Center
09:22PM 37.3461 -121.9114 318° Northwest 127 146 400 -540 Descending Oakland Center
09:24PM 37.3500 -121.9167 North  Level FlightAware Approximate
09:31PM 37.3627 -121.9291 North  Level Estimated
09:32PM 37.3627 -121.9291 North  Level Estimated